sensor_id;sensor_type;location;lat;lon;timestamp;pressure;altitude;pressure_sealevel;temperature;humidity
28665;BME280;15850;47.524;7.814;2022-07-26T00:02:12;97705.41;;;22.26;60.82
28665;BME280;15850;47.524;7.814;2022-07-26T00:04:38;97677.88;;;22.08;61.53
28665;BME280;15850;47.524;7.814;2022-07-26T00:07:03;97725.13;;;22.32;62.14
28665;BME280;15850;47.524;7.814;2022-07-26T00:09:29;97720.50;;;22.21;62.79
28665;BME280;15850;47.524;7.814;2022-07-26T00:11:54;97704.72;;;22.15;64.04
28665;BME280;15850;47.524;7.814;2022-07-26T00:14:22;97447.06;;;20.51;64.58
28665;BME280;15850;47.524;7.814;2022-07-26T00:16:47;97724.81;;;22.26;65.12
28665;BME280;15850;47.524;7.814;2022-07-26T00:19:13;97724.28;;;22.35;65.20
28665;BME280;15850;47.524;7.814;2022-07-26T00:21:38;97300.59;;;19.61;65.66
28665;BME280;15850;47.524;7.814;2022-07-26T00:24:05;97733.09;;;22.30;67.51
28665;BME280;15850;47.524;7.814;2022-07-26T00:26:30;97683.53;;;21.97;68.00
28665;BME280;15850;47.524;7.814;2022-07-26T00:28:57;97700.00;;;22.15;68.04
28665;BME280;15850;47.524;7.814;2022-07-26T00:31:24;97495.84;;;20.68;70.49
28665;BME280;15850;47.524;7.814;2022-07-26T00:34:11;97737.75;;;22.36;70.25
28665;BME280;15850;47.524;7.814;2022-07-26T00:36:36;97734.16;;;22.39;70.81
28665;BME280;15850;47.524;7.814;2022-07-26T00:39:02;97738.53;;;22.37;71.49
28665;BME280;15850;47.524;7.814;2022-07-26T00:41:28;97731.56;;;22.21;73.37
28665;BME280;15850;47.524;7.814;2022-07-26T00:43:58;97750.56;;;22.23;74.55
28665;BME280;15850;47.524;7.814;2022-07-26T00:46:25;97652.13;;;21.77;73.78
28665;BME280;15850;47.524;7.814;2022-07-26T00:48:51;97739.28;;;22.41;74.33
28665;BME280;15850;47.524;7.814;2022-07-26T00:51:17;97735.63;;;22.47;74.70
28665;BME280;15850;47.524;7.814;2022-07-26T00:53:44;97525.28;;;20.89;76.48
28665;BME280;15850;47.524;7.814;2022-07-26T00:56:09;97735.16;;;22.22;78.08
28665;BME280;15850;47.524;7.814;2022-07-26T00:58:35;97735.56;;;22.20;78.88
28665;BME280;15850;47.524;7.814;2022-07-26T01:01:00;97549.66;;;21.01;79.14
28665;BME280;15850;47.524;7.814;2022-07-26T01:03:27;97650.75;;;21.54;80.57
28665;BME280;15850;47.524;7.814;2022-07-26T01:05:53;97588.53;;;21.28;79.79
28665;BME280;15850;47.524;7.814;2022-07-26T01:08:18;97735.78;;;21.99;82.28
28665;BME280;15850;47.524;7.814;2022-07-26T01:10:44;97731.06;;;21.96;82.31
28665;BME280;15850;47.524;7.814;2022-07-26T01:13:10;97474.78;;;20.33;82.29
28665;BME280;15850;47.524;7.814;2022-07-26T01:15:35;97654.00;;;21.49;82.23
28665;BME280;15850;47.524;7.814;2022-07-26T01:18:01;97679.09;;;21.69;82.73
28665;BME280;15850;47.524;7.814;2022-07-26T01:20:28;97742.88;;;22.00;83.12
28665;BME280;15850;47.524;7.814;2022-07-26T01:22:55;97746.91;;;21.92;84.03
28665;BME280;15850;47.524;7.814;2022-07-26T01:25:28;97752.94;;;21.83;84.99
28665;BME280;15850;47.524;7.814;2022-07-26T01:27:53;97756.81;;;21.44;91.30
28665;BME280;15850;47.524;7.814;2022-07-26T01:30:19;97756.16;;;21.22;96.15
28665;BME280;15850;47.524;7.814;2022-07-26T01:32:44;97689.28;;;20.79;99.50
28665;BME280;15850;47.524;7.814;2022-07-26T01:35:10;97696.44;;;20.76;100.00
28665;BME280;15850;47.524;7.814;2022-07-26T01:37:36;97752.72;;;21.07;100.00
28665;BME280;15850;47.524;7.814;2022-07-26T01:40:03;97609.47;;;20.18;100.00
28665;BME280;15850;47.524;7.814;2022-07-26T01:42:29;97673.22;;;20.63;100.00
28665;BME280;15850;47.524;7.814;2022-07-26T01:44:55;97755.38;;;21.22;100.00
28665;BME280;15850;47.524;7.814;2022-07-26T01:47:20;97761.25;;;21.34;98.45
28665;BME280;15850;47.524;7.814;2022-07-26T01:49:46;97762.03;;;21.35;100.00
28665;BME280;15850;47.524;7.814;2022-07-26T01:52:11;97774.28;;;21.30;99.66
28665;BME280;15850;47.524;7.814;2022-07-26T01:54:37;97763.56;;;21.43;99.21
28665;BME280;15850;47.524;7.814;2022-07-26T01:57:04;97780.66;;;21.24;100.00
28665;BME280;15850;47.524;7.814;2022-07-26T01:59:29;97585.03;;;20.09;100.00
28665;BME280;15850;47.524;7.814;2022-07-26T02:01:58;97732.69;;;20.85;100.00
28665;BME280;15850;47.524;7.814;2022-07-26T02:04:24;97741.78;;;20.90;100.00
28665;BME280;15850;47.524;7.814;2022-07-26T02:06:49;97761.25;;;21.34;100.00
28665;BME280;15850;47.524;7.814;2022-07-26T02:09:15;97616.84;;;20.39;100.00
28665;BME280;15850;47.524;7.814;2022-07-26T02:11:40;97614.06;;;20.42;100.00
28665;BME280;15850;47.524;7.814;2022-07-26T02:14:07;97763.91;;;21.49;100.00
28665;BME280;15850;47.524;7.814;2022-07-26T02:16:33;97755.88;;;21.62;97.40
28665;BME280;15850;47.524;7.814;2022-07-26T02:18:58;97742.22;;;21.40;97.85
28665;BME280;15850;47.524;7.814;2022-07-26T02:21:24;97732.75;;;21.38;96.00
28665;BME280;15850;47.524;7.814;2022-07-26T02:23:49;97656.47;;;20.84;96.40
28665;BME280;15850;47.524;7.814;2022-07-26T02:26:15;97762.63;;;21.61;95.78
28665;BME280;15850;47.524;7.814;2022-07-26T02:28:41;97762.34;;;21.44;96.95
28665;BME280;15850;47.524;7.814;2022-07-26T02:31:10;97678.25;;;20.75;98.45
28665;BME280;15850;47.524;7.814;2022-07-26T02:33:36;97703.66;;;21.15;98.13
28665;BME280;15850;47.524;7.814;2022-07-26T02:36:03;97684.47;;;20.94;97.59
28665;BME280;15850;47.524;7.814;2022-07-26T02:38:29;97757.72;;;21.27;99.70
28665;BME280;15850;47.524;7.814;2022-07-26T02:40:54;97761.31;;;21.20;100.00
28665;BME280;15850;47.524;7.814;2022-07-26T02:43:20;97724.69;;;21.02;99.18
28665;BME280;15850;47.524;7.814;2022-07-26T02:45:45;97709.31;;;20.97;98.93
28665;BME280;15850;47.524;7.814;2022-07-26T02:48:12;97759.19;;;21.42;97.25
28665;BME280;15850;47.524;7.814;2022-07-26T02:50:38;97747.44;;;21.27;97.87
28665;BME280;15850;47.524;7.814;2022-07-26T02:53:03;97754.88;;;21.41;97.21
28665;BME280;15850;47.524;7.814;2022-07-26T02:55:29;97686.69;;;21.13;96.31
28665;BME280;15850;47.524;7.814;2022-07-26T02:57:55;97395.03;;;19.16;95.53
28665;BME280;15850;47.524;7.814;2022-07-26T03:00:23;97755.09;;;21.61;95.32
28665;BME280;15850;47.524;7.814;2022-07-26T03:02:49;97715.13;;;21.14;96.97
28665;BME280;15850;47.524;7.814;2022-07-26T03:05:16;97748.59;;;21.30;98.59
28665;BME280;15850;47.524;7.814;2022-07-26T03:07:42;97759.63;;;21.41;98.46
28665;BME280;15850;47.524;7.814;2022-07-26T03:10:08;97744.97;;;21.44;96.07
28665;BME280;15850;47.524;7.814;2022-07-26T03:12:34;97752.00;;;21.52;97.57
28665;BME280;15850;47.524;7.814;2022-07-26T03:15:00;97724.88;;;21.29;99.46
28665;BME280;15850;47.524;7.814;2022-07-26T03:17:25;97760.81;;;21.40;100.00
28665;BME280;15850;47.524;7.814;2022-07-26T03:19:51;97761.63;;;21.37;99.99
28665;BME280;15850;47.524;7.814;2022-07-26T03:22:18;97754.16;;;21.26;100.00
28665;BME280;15850;47.524;7.814;2022-07-26T03:24:43;97748.69;;;21.16;99.89
28665;BME280;15850;47.524;7.814;2022-07-26T03:27:09;97743.56;;;21.18;100.00
28665;BME280;15850;47.524;7.814;2022-07-26T03:29:34;97748.00;;;21.01;100.00
28665;BME280;15850;47.524;7.814;2022-07-26T03:32:00;97744.81;;;21.02;100.00
28665;BME280;15850;47.524;7.814;2022-07-26T03:34:26;97721.63;;;20.85;100.00
28665;BME280;15850;47.524;7.814;2022-07-26T03:36:53;97752.38;;;20.98;100.00
28665;BME280;15850;47.524;7.814;2022-07-26T03:39:20;97755.09;;;21.05;100.00
28665;BME280;15850;47.524;7.814;2022-07-26T03:41:46;97714.53;;;20.84;100.00
28665;BME280;15850;47.524;7.814;2022-07-26T03:44:11;97751.22;;;20.88;100.00
28665;BME280;15850;47.524;7.814;2022-07-26T03:46:37;97667.78;;;20.34;100.00
28665;BME280;15850;47.524;7.814;2022-07-26T03:49:02;97752.28;;;21.09;100.00
28665;BME280;15850;47.524;7.814;2022-07-26T03:51:28;97664.66;;;20.25;100.00
28665;BME280;15850;47.524;7.814;2022-07-26T03:53:53;97752.38;;;20.98;100.00
28665;BME280;15850;47.524;7.814;2022-07-26T03:56:20;97750.69;;;21.15;100.00
28665;BME280;15850;47.524;7.814;2022-07-26T03:58:46;97753.06;;;21.17;100.00
28665;BME280;15850;47.524;7.814;2022-07-26T04:01:11;97607.94;;;20.10;100.00
28665;BME280;15850;47.524;7.814;2022-07-26T04:03:37;97699.25;;;20.62;100.00
28665;BME280;15850;47.524;7.814;2022-07-26T04:06:03;97735.50;;;20.78;100.00
28665;BME280;15850;47.524;7.814;2022-07-26T04:08:29;97747.19;;;21.04;100.00
28665;BME280;15850;47.524;7.814;2022-07-26T04:10:54;97753.16;;;20.99;100.00
28665;BME280;15850;47.524;7.814;2022-07-26T04:13:21;97761.13;;;20.82;100.00
28665;BME280;15850;47.524;7.814;2022-07-26T04:15:47;97757.97;;;20.87;100.00
28665;BME280;15850;47.524;7.814;2022-07-26T04:18:12;97759.53;;;20.88;100.00
28665;BME280;15850;47.524;7.814;2022-07-26T04:20:38;97768.97;;;20.98;100.00
28665;BME280;15850;47.524;7.814;2022-07-26T04:23:03;97731.19;;;20.74;100.00
28665;BME280;15850;47.524;7.814;2022-07-26T04:25:29;97769.31;;;21.07;100.00
28665;BME280;15850;47.524;7.814;2022-07-26T04:27:54;97768.88;;;21.16;100.00
28665;BME280;15850;47.524;7.814;2022-07-26T04:30:21;97770.47;;;21.10;100.00
28665;BME280;15850;47.524;7.814;2022-07-26T04:32:47;97763.44;;;20.98;100.00
28665;BME280;15850;47.524;7.814;2022-07-26T04:35:13;97756.31;;;21.01;100.00
28665;BME280;15850;47.524;7.814;2022-07-26T04:37:40;97688.97;;;20.70;100.00
28665;BME280;15850;47.524;7.814;2022-07-26T04:40:06;97765.28;;;21.19;100.00
28665;BME280;15850;47.524;7.814;2022-07-26T04:42:32;97761.75;;;21.15;100.00
28665;BME280;15850;47.524;7.814;2022-07-26T04:44:58;97759.63;;;20.74;100.00
28665;BME280;15850;47.524;7.814;2022-07-26T04:47:25;97760.47;;;20.64;100.00
28665;BME280;15850;47.524;7.814;2022-07-26T04:49:51;97675.00;;;20.10;100.00
28665;BME280;15850;47.524;7.814;2022-07-26T04:52:16;97723.78;;;20.42;100.00
28665;BME280;15850;47.524;7.814;2022-07-26T04:54:42;97761.97;;;20.76;100.00
28665;BME280;15850;47.524;7.814;2022-07-26T04:57:07;97720.56;;;20.65;100.00
28665;BME280;15850;47.524;7.814;2022-07-26T04:59:33;97751.59;;;20.94;100.00
28665;BME280;15850;47.524;7.814;2022-07-26T05:01:58;97591.44;;;19.88;100.00
28665;BME280;15850;47.524;7.814;2022-07-26T05:04:25;97760.22;;;21.07;100.00
28665;BME280;15850;47.524;7.814;2022-07-26T05:06:51;97538.28;;;19.74;100.00
28665;BME280;15850;47.524;7.814;2022-07-26T05:09:16;97757.47;;;21.03;100.00
28665;BME280;15850;47.524;7.814;2022-07-26T05:11:42;97761.69;;;21.22;100.00
28665;BME280;15850;47.524;7.814;2022-07-26T05:14:07;97761.75;;;21.11;100.00
28665;BME280;15850;47.524;7.814;2022-07-26T05:16:33;97759.53;;;20.88;100.00
28665;BME280;15850;47.524;7.814;2022-07-26T05:18:59;97759.13;;;20.94;100.00
28665;BME280;15850;47.524;7.814;2022-07-26T05:21:26;97760.34;;;20.85;100.00
28665;BME280;15850;47.524;7.814;2022-07-26T05:23:51;97691.00;;;20.55;100.00
28665;BME280;15850;47.524;7.814;2022-07-26T05:26:17;97692.56;;;20.56;100.00
28665;BME280;15850;47.524;7.814;2022-07-26T05:28:42;97683.22;;;20.28;100.00
28665;BME280;15850;47.524;7.814;2022-07-26T05:31:08;97720.19;;;20.63;100.00
28665;BME280;15850;47.524;7.814;2022-07-26T05:33:34;97702.81;;;20.59;100.00
28665;BME280;15850;47.524;7.814;2022-07-26T05:36:07;97759.50;;;20.96;100.00
28665;BME280;15850;47.524;7.814;2022-07-26T05:38:34;97619.44;;;19.98;100.00
28665;BME280;15850;47.524;7.814;2022-07-26T05:41:00;97732.00;;;20.71;100.00
28665;BME280;15850;47.524;7.814;2022-07-26T05:43:25;97735.88;;;20.80;100.00
28665;BME280;15850;47.524;7.814;2022-07-26T05:45:52;97715.47;;;20.53;100.00
28665;BME280;15850;47.524;7.814;2022-07-26T05:48:17;97762.03;;;20.65;100.00
28665;BME280;15850;47.524;7.814;2022-07-26T05:50:43;97767.56;;;20.61;100.00
28665;BME280;15850;47.524;7.814;2022-07-26T05:53:09;97721.59;;;19.98;100.00
28665;BME280;15850;47.524;7.814;2022-07-26T05:55:36;97779.50;;;20.26;100.00
28665;BME280;15850;47.524;7.814;2022-07-26T05:58:14;97699.13;;;19.88;100.00
28665;BME280;15850;47.524;7.814;2022-07-26T06:00:39;97773.91;;;20.58;100.00
28665;BME280;15850;47.524;7.814;2022-07-26T06:03:05;97731.31;;;20.41;100.00
28665;BME280;15850;47.524;7.814;2022-07-26T06:05:30;97784.81;;;20.91;100.00
28665;BME280;15850;47.524;7.814;2022-07-26T06:07:56;97752.22;;;20.50;100.00
28665;BME280;15850;47.524;7.814;2022-07-26T06:10:21;97800.59;;;20.94;100.00
28665;BME280;15850;47.524;7.814;2022-07-26T06:12:48;97791.94;;;20.84;100.00
28665;BME280;15850;47.524;7.814;2022-07-26T06:15:14;97790.25;;;21.05;100.00
28665;BME280;15850;47.524;7.814;2022-07-26T06:17:40;97766.25;;;20.87;100.00
28665;BME280;15850;47.524;7.814;2022-07-26T06:20:07;97762.41;;;20.71;100.00
28665;BME280;15850;47.524;7.814;2022-07-26T06:22:33;97796.19;;;21.07;100.00
28665;BME280;15850;47.524;7.814;2022-07-26T06:24:58;97793.41;;;21.07;100.00
28665;BME280;15850;47.524;7.814;2022-07-26T06:27:24;97795.81;;;21.01;100.00
28665;BME280;15850;47.524;7.814;2022-07-26T06:29:52;97767.19;;;20.63;100.00
28665;BME280;15850;47.524;7.814;2022-07-26T06:32:17;97682.50;;;20.13;100.00
28665;BME280;15850;47.524;7.814;2022-07-26T06:34:43;97806.94;;;20.91;100.00
28665;BME280;15850;47.524;7.814;2022-07-26T06:37:08;97770.72;;;20.67;100.00
28665;BME280;15850;47.524;7.814;2022-07-26T06:39:34;97769.06;;;20.80;100.00
28665;BME280;15850;47.524;7.814;2022-07-26T06:41:59;97700.19;;;20.27;100.00
28665;BME280;15850;47.524;7.814;2022-07-26T06:44:27;97806.03;;;21.11;100.00
28665;BME280;15850;47.524;7.814;2022-07-26T06:47:00;97799.56;;;21.40;100.00
28665;BME280;15850;47.524;7.814;2022-07-26T06:49:26;97802.97;;;21.58;100.00
28665;BME280;15850;47.524;7.814;2022-07-26T06:51:51;97803.94;;;21.33;100.00
28665;BME280;15850;47.524;7.814;2022-07-26T06:54:17;97800.66;;;20.86;100.00
28665;BME280;15850;47.524;7.814;2022-07-26T06:56:42;97795.22;;;21.35;100.00
28665;BME280;15850;47.524;7.814;2022-07-26T06:59:08;97738.03;;;21.18;100.00
28665;BME280;15850;47.524;7.814;2022-07-26T07:01:34;97592.25;;;20.59;95.28
28665;BME280;15850;47.524;7.814;2022-07-26T07:04:00;97630.91;;;21.18;92.64
28665;BME280;15850;47.524;7.814;2022-07-26T07:06:26;97792.28;;;22.09;90.47
28665;BME280;15850;47.524;7.814;2022-07-26T07:08:52;97814.88;;;22.03;87.50
28665;BME280;15850;47.524;7.814;2022-07-26T07:11:17;97631.44;;;21.02;88.73
28665;BME280;15850;47.524;7.814;2022-07-26T07:13:43;97803.19;;;21.81;91.20
28665;BME280;15850;47.524;7.814;2022-07-26T07:16:08;97652.72;;;20.57;91.35
28665;BME280;15850;47.524;7.814;2022-07-26T07:18:34;97755.25;;;20.80;95.29
28665;BME280;15850;47.524;7.814;2022-07-26T07:21:01;97799.59;;;21.36;93.92
28665;BME280;15850;47.524;7.814;2022-07-26T07:23:26;97712.47;;;20.99;91.50
28665;BME280;15850;47.524;7.814;2022-07-26T07:25:52;97771.91;;;21.40;91.05
28665;BME280;15850;47.524;7.814;2022-07-26T07:28:17;97793.31;;;21.80;89.52
28665;BME280;15850;47.524;7.814;2022-07-26T07:30:43;97821.00;;;21.80;88.63
28665;BME280;15850;47.524;7.814;2022-07-26T07:33:08;97798.94;;;22.11;88.03
28665;BME280;15850;47.524;7.814;2022-07-26T07:35:34;97802.59;;;22.01;85.53
28665;BME280;15850;47.524;7.814;2022-07-26T07:38:01;97782.84;;;22.40;82.99
28665;BME280;15850;47.524;7.814;2022-07-26T07:40:26;97783.00;;;22.60;80.05
28665;BME280;15850;47.524;7.814;2022-07-26T07:42:52;97760.97;;;22.08;81.75
28665;BME280;15850;47.524;7.814;2022-07-26T07:45:17;97711.34;;;21.87;81.27
28665;BME280;15850;47.524;7.814;2022-07-26T07:47:43;97685.72;;;22.17;79.78
28665;BME280;15850;47.524;7.814;2022-07-26T07:50:09;97774.47;;;22.78;79.21
28665;BME280;15850;47.524;7.814;2022-07-26T07:52:34;97787.13;;;22.79;78.25
28665;BME280;15850;47.524;7.814;2022-07-26T07:55:01;97754.69;;;22.76;75.25
28665;BME280;15850;47.524;7.814;2022-07-26T07:57:27;97667.19;;;22.41;75.24
28665;BME280;15850;47.524;7.814;2022-07-26T07:59:55;97735.41;;;22.96;74.16
28665;BME280;15850;47.524;7.814;2022-07-26T08:02:20;97739.41;;;22.95;73.88
28665;BME280;15850;47.524;7.814;2022-07-26T08:04:46;97593.34;;;22.27;72.57
28665;BME280;15850;47.524;7.814;2022-07-26T08:07:11;97763.28;;;23.16;73.20
28665;BME280;15850;47.524;7.814;2022-07-26T08:09:37;97773.94;;;22.87;75.14
28665;BME280;15850;47.524;7.814;2022-07-26T08:12:04;97654.94;;;22.08;75.55
28665;BME280;15850;47.524;7.814;2022-07-26T08:14:30;97571.13;;;21.28;76.82
28665;BME280;15850;47.524;7.814;2022-07-26T08:16:56;97720.59;;;22.11;75.80
28665;BME280;15850;47.524;7.814;2022-07-26T08:19:21;97372.59;;;19.84;75.65
28665;BME280;15850;47.524;7.814;2022-07-26T08:21:47;97772.13;;;22.42;74.32
28665;BME280;15850;47.524;7.814;2022-07-26T08:24:13;97763.16;;;22.65;71.62
28665;BME280;15850;47.524;7.814;2022-07-26T08:26:38;97767.66;;;22.83;70.80
28665;BME280;15850;47.524;7.814;2022-07-26T08:29:05;97612.69;;;22.00;69.63
28665;BME280;15850;47.524;7.814;2022-07-26T08:31:31;97733.31;;;22.73;64.48
28665;BME280;15850;47.524;7.814;2022-07-26T08:33:57;97774.88;;;23.07;67.77
28665;BME280;15850;47.524;7.814;2022-07-26T08:36:23;97765.66;;;23.41;63.30
28665;BME280;15850;47.524;7.814;2022-07-26T08:38:49;97701.44;;;22.88;64.20
28665;BME280;15850;47.524;7.814;2022-07-26T08:41:26;97772.06;;;23.38;63.49
28665;BME280;15850;47.524;7.814;2022-07-26T08:43:51;97776.31;;;24.17;58.59
28665;BME280;15850;47.524;7.814;2022-07-26T08:46:19;97743.63;;;23.81;57.87
28665;BME280;15850;47.524;7.814;2022-07-26T08:48:45;97739.91;;;23.13;59.72
28665;BME280;15850;47.524;7.814;2022-07-26T08:51:11;97777.25;;;23.09;64.10
28665;BME280;15850;47.524;7.814;2022-07-26T08:53:37;97691.03;;;22.00;66.42
28665;BME280;15850;47.524;7.814;2022-07-26T08:56:04;97786.69;;;22.50;68.45
28665;BME280;15850;47.524;7.814;2022-07-26T08:58:32;97712.19;;;22.21;66.32
28665;BME280;15850;47.524;7.814;2022-07-26T09:03:32;97705.16;;;23.05;61.10
28665;BME280;15850;47.524;7.814;2022-07-26T09:06:10;97788.56;;;23.49;60.64
28665;BME280;15850;47.524;7.814;2022-07-26T09:08:36;97648.50;;;22.75;60.09
28665;BME280;15850;47.524;7.814;2022-07-26T09:11:01;97785.88;;;23.68;58.99
28665;BME280;15850;47.524;7.814;2022-07-26T09:13:48;97728.44;;;23.38;59.59
28665;BME280;15850;47.524;7.814;2022-07-26T09:16:14;97751.34;;;23.70;60.05
28665;BME280;15850;47.524;7.814;2022-07-26T09:18:41;97748.38;;;24.24;56.96
28665;BME280;15850;47.524;7.814;2022-07-26T09:21:06;97691.44;;;23.68;56.94
28665;BME280;15850;47.524;7.814;2022-07-26T09:23:38;97748.69;;;23.86;57.24
28665;BME280;15850;47.524;7.814;2022-07-26T09:26:04;97775.50;;;23.73;57.28
28665;BME280;15850;47.524;7.814;2022-07-26T09:28:30;97773.53;;;23.46;59.28
28665;BME280;15850;47.524;7.814;2022-07-26T09:30:58;97768.81;;;23.66;59.84
28665;BME280;15850;47.524;7.814;2022-07-26T09:33:24;97773.34;;;24.04;56.47
28665;BME280;15850;47.524;7.814;2022-07-26T09:36:01;97764.47;;;24.12;56.48
28665;BME280;15850;47.524;7.814;2022-07-26T09:38:37;97761.38;;;23.60;56.67
28665;BME280;15850;47.524;7.814;2022-07-26T09:41:15;97775.56;;;23.42;57.03
28665;BME280;15850;47.524;7.814;2022-07-26T09:43:41;97776.56;;;23.55;53.10
28665;BME280;15850;47.524;7.814;2022-07-26T09:46:07;97772.34;;;23.71;52.47
28665;BME280;15850;47.524;7.814;2022-07-26T09:48:32;97761.38;;;24.07;52.04
28665;BME280;15850;47.524;7.814;2022-07-26T09:50:59;97784.13;;;24.45;50.11
28665;BME280;15850;47.524;7.814;2022-07-26T09:53:25;97590.00;;;23.60;48.59
28665;BME280;15850;47.524;7.814;2022-07-26T09:55:55;97744.88;;;24.79;48.87
28665;BME280;15850;47.524;7.814;2022-07-26T09:58:22;97767.09;;;24.99;47.06
28665;BME280;15850;47.524;7.814;2022-07-26T10:00:48;97777.69;;;24.88;47.38
28665;BME280;15850;47.524;7.814;2022-07-26T10:03:13;97779.63;;;24.91;46.99
28665;BME280;15850;47.524;7.814;2022-07-26T10:05:39;97783.56;;;25.30;45.94
28665;BME280;15850;47.524;7.814;2022-07-26T10:08:07;97755.16;;;24.63;46.35
28665;BME280;15850;47.524;7.814;2022-07-26T10:10:39;97789.91;;;24.54;46.32
28665;BME280;15850;47.524;7.814;2022-07-26T10:13:07;97787.00;;;24.61;46.35
28665;BME280;15850;47.524;7.814;2022-07-26T10:15:34;97789.38;;;24.99;45.67
28665;BME280;15850;47.524;7.814;2022-07-26T10:18:05;97779.03;;;25.52;42.11
28665;BME280;15850;47.524;7.814;2022-07-26T10:20:48;97791.53;;;25.81;43.85
28665;BME280;15850;47.524;7.814;2022-07-26T10:23:39;97786.19;;;25.37;44.80
28665;BME280;15850;47.524;7.814;2022-07-26T10:26:07;97797.56;;;24.50;45.41
28665;BME280;15850;47.524;7.814;2022-07-26T10:28:34;97793.03;;;24.56;45.95
28665;BME280;15850;47.524;7.814;2022-07-26T10:31:22;97777.75;;;24.25;44.41
28665;BME280;15850;47.524;7.814;2022-07-26T10:33:48;97754.97;;;24.10;44.32
28665;BME280;15850;47.524;7.814;2022-07-26T10:36:23;97680.28;;;23.49;44.11
28665;BME280;15850;47.524;7.814;2022-07-26T10:39:11;97790.00;;;24.51;45.76
28665;BME280;15850;47.524;7.814;2022-07-26T10:41:41;97747.44;;;24.10;45.51
28665;BME280;15850;47.524;7.814;2022-07-26T10:44:22;97775.34;;;24.67;45.59
28665;BME280;15850;47.524;7.814;2022-07-26T10:46:56;97680.59;;;24.18;44.55
28665;BME280;15850;47.524;7.814;2022-07-26T10:49:28;97583.16;;;23.45;45.21
28665;BME280;15850;47.524;7.814;2022-07-26T10:52:04;97654.22;;;24.46;45.08
28665;BME280;15850;47.524;7.814;2022-07-26T10:57:40;97773.31;;;25.60;43.50
28665;BME280;15850;47.524;7.814;2022-07-26T11:00:10;97783.56;;;25.95;42.19
28665;BME280;15850;47.524;7.814;2022-07-26T11:02:36;97731.06;;;25.94;42.17
28665;BME280;15850;47.524;7.814;2022-07-26T11:05:05;97776.63;;;25.87;41.18
28665;BME280;15850;47.524;7.814;2022-07-26T11:07:31;97772.88;;;25.08;43.25
28665;BME280;15850;47.524;7.814;2022-07-26T11:10:00;97772.28;;;25.86;43.10
28665;BME280;15850;47.524;7.814;2022-07-26T11:12:26;97762.13;;;25.76;43.37
28665;BME280;15850;47.524;7.814;2022-07-26T11:14:52;97620.69;;;25.67;40.86
28665;BME280;15850;47.524;7.814;2022-07-26T11:17:22;97742.72;;;26.63;40.99
28665;BME280;15850;47.524;7.814;2022-07-26T11:19:48;97767.63;;;26.83;40.23
28665;BME280;15850;47.524;7.814;2022-07-26T11:22:13;97764.66;;;26.32;41.17
28665;BME280;15850;47.524;7.814;2022-07-26T11:24:39;97740.78;;;26.47;40.89
28665;BME280;15850;47.524;7.814;2022-07-26T11:27:06;97760.03;;;26.13;39.99
28665;BME280;15850;47.524;7.814;2022-07-26T11:29:32;97662.91;;;25.49;40.59
28665;BME280;15850;47.524;7.814;2022-07-26T11:31:58;97762.34;;;26.31;40.40
28665;BME280;15850;47.524;7.814;2022-07-26T11:34:27;97751.44;;;26.36;40.31
28665;BME280;15850;47.524;7.814;2022-07-26T11:36:55;97761.78;;;26.07;39.15
28665;BME280;15850;47.524;7.814;2022-07-26T11:39:22;97763.53;;;26.00;39.88
28665;BME280;15850;47.524;7.814;2022-07-26T11:41:48;97745.22;;;26.16;39.72
28665;BME280;15850;47.524;7.814;2022-07-26T11:44:16;97671.13;;;25.57;39.89
28665;BME280;15850;47.524;7.814;2022-07-26T11:46:42;97575.53;;;25.14;39.49
28665;BME280;15850;47.524;7.814;2022-07-26T11:49:13;97755.81;;;26.21;39.42
28665;BME280;15850;47.524;7.814;2022-07-26T11:51:40;97758.78;;;26.59;36.60
28665;BME280;15850;47.524;7.814;2022-07-26T11:54:12;97747.38;;;26.54;37.25
28665;BME280;15850;47.524;7.814;2022-07-26T11:56:37;97737.19;;;26.89;37.21
28665;BME280;15850;47.524;7.814;2022-07-26T11:59:03;97526.97;;;25.15;38.34
28665;BME280;15850;47.524;7.814;2022-07-26T12:01:30;97691.81;;;25.39;40.37
28665;BME280;15850;47.524;7.814;2022-07-26T12:03:56;97737.59;;;25.71;41.82
28665;BME280;15850;47.524;7.814;2022-07-26T12:06:23;97739.78;;;25.80;40.95
28665;BME280;15850;47.524;7.814;2022-07-26T12:08:50;97704.47;;;25.44;40.79
28665;BME280;15850;47.524;7.814;2022-07-26T12:11:17;97734.47;;;25.52;41.37
28665;BME280;15850;47.524;7.814;2022-07-26T12:13:55;97729.06;;;25.78;41.31
28665;BME280;15850;47.524;7.814;2022-07-26T12:16:38;97700.81;;;25.92;39.30
28665;BME280;15850;47.524;7.814;2022-07-26T12:19:06;97733.97;;;26.48;39.65
28665;BME280;15850;47.524;7.814;2022-07-26T12:21:43;97543.28;;;25.29;39.01
28665;BME280;15850;47.524;7.814;2022-07-26T12:24:10;97703.97;;;26.53;38.87
28665;BME280;15850;47.524;7.814;2022-07-26T12:26:36;97709.97;;;27.19;36.44
28665;BME280;15850;47.524;7.814;2022-07-26T12:29:02;97686.44;;;27.41;37.71
28665;BME280;15850;47.524;7.814;2022-07-26T12:31:29;97691.84;;;27.23;35.95
28665;BME280;15850;47.524;7.814;2022-07-26T12:33:57;97703.13;;;27.32;37.25
28665;BME280;15850;47.524;7.814;2022-07-26T12:36:23;97704.31;;;27.44;36.24
28665;BME280;15850;47.524;7.814;2022-07-26T12:38:49;97702.91;;;27.14;36.87
28665;BME280;15850;47.524;7.814;2022-07-26T12:41:30;97666.59;;;27.01;36.04
28665;BME280;15850;47.524;7.814;2022-07-26T12:43:55;97701.66;;;26.89;37.74
28665;BME280;15850;47.524;7.814;2022-07-26T12:46:21;97694.59;;;26.72;37.96
28665;BME280;15850;47.524;7.814;2022-07-26T12:48:46;97701.53;;;26.80;37.16
28665;BME280;15850;47.524;7.814;2022-07-26T12:51:13;97633.94;;;26.34;37.18
28665;BME280;15850;47.524;7.814;2022-07-26T12:53:39;97698.44;;;26.36;37.67
28665;BME280;15850;47.524;7.814;2022-07-26T12:56:04;97684.69;;;26.42;37.90
28665;BME280;15850;47.524;7.814;2022-07-26T12:58:30;97348.25;;;24.49;38.62
28665;BME280;15850;47.524;7.814;2022-07-26T13:00:56;97429.38;;;25.06;38.27
28665;BME280;15850;47.524;7.814;2022-07-26T13:03:21;97685.25;;;26.66;37.60